P/v Golden Gate — WDE5665 — position and weather

sailwx.info

Track history (hours):
 
Tides and Currents Weather Stations Pressure Air Temp Water Temp Dewpoint Dewpoint Depression Visibility Wind Speed Wind Dir Waves Ship Positions

P/v Golden Gate

Owner: San Francisco Bar Pilots Benevolent and Protective, San Francisco, CA. More information available from US FCC via Universal Licensing System and Coast Guard Vessel Documentation Center.

Last reported at 2015-Feb-01 23:33 UTC. Time now 2015-Feb-02 00:17 UTC.
Position N 37°48' W 122°24'.

Length 23 m; draft 2 m.

Type: Pilot. MMSI: 367370010.

Date/timePositionNaut miles runAvg speedWind from/ knotsBaromVisibWave heightAir tempDewpointWater temp
2015-Feb-01 23:33N 37°48' W 122°24'0 0.0
2015-Feb-01 22:33N 37°48' W 122°24'0 0.0
2015-Feb-01 21:33N 37°48' W 122°24'0 0.0
2015-Feb-01 20:33N 37°48' W 122°24'9 9.2
2015-Feb-01 19:34N 37°47' W 122°35'9 9.2
2015-Feb-01 18:33N 37°48' W 122°24'0 0.0
2015-Feb-01 17:33N 37°48' W 122°24'0 0.0
2015-Feb-01 16:33N 37°48' W 122°24'3 3.1
2015-Feb-01 15:34N 37°49' W 122°20'3 3.1
2015-Feb-01 14:33N 37°48' W 122°24'3 3.4
2015-Feb-01 13:34N 37°46' W 122°20'3 3.3
2015-Feb-01 12:33N 37°48' W 122°24'0 0.0
2015-Feb-01 11:34N 37°48' W 122°24'0 0.0
2015-Feb-01 10:34N 37°48' W 122°24'0 0.0
2015-Feb-01 09:33N 37°48' W 122°24'4 4.1
2015-Feb-01 08:34N 37°49' W 122°29'7 7.3
2015-Feb-01 07:33N 37°49' W 122°20'3 3.5
2015-Feb-01 06:33N 37°48' W 122°24'0 0.0
2015-Feb-01 05:34N 37°48' W 122°24'2 2.4
2015-Feb-01 04:34N 37°48' W 122°21'2 2.4
2015-Feb-01 03:33N 37°48' W 122°24'0 0.0
2015-Feb-01 02:33N 37°48' W 122°24'0 0.0
2015-Feb-01 01:33N 37°48' W 122°24'0 0.0
2015-Feb-01 00:33N 37°48' W 122°24'0 0.0
2015-Jan-31 23:33N 37°48' W 122°24'0 0.0
2015-Jan-31 22:33N 37°48' W 122°24'0 0.0
2015-Jan-31 21:33N 37°48' W 122°24'0 0.0
2015-Jan-31 20:33N 37°48' W 122°24'0 0.0
2015-Jan-31 19:33N 37°48' W 122°24'0 0.0
2015-Jan-31 18:33N 37°48' W 122°24'0 0.0
2015-Jan-31 17:33N 37°48' W 122°24'1 1.2
2015-Jan-31 16:32N 37°49' W 122°25'1 1.3
2015-Jan-31 15:34N 37°48' W 122°24'1 0.9
2015-Jan-31 14:33N 37°48' W 122°23'5 4.6
2015-Jan-31 13:34N 37°52' W 122°25'3 3.3
2015-Jan-31 12:33N 37°49' W 122°24'1 0.6
2015-Jan-31 11:33N 37°48' W 122°24'0 0.0
2015-Jan-31 10:33N 37°48' W 122°24'4 4.1
2015-Jan-31 09:33N 37°49' W 122°19'4 4.1
2015-Jan-31 08:33N 37°48' W 122°24'0 0.0
2015-Jan-31 07:33N 37°48' W 122°24'0 0.0
2015-Jan-31 06:33N 37°48' W 122°24'0 0.0
2015-Jan-31 05:33N 37°48' W 122°24'0 0.0
2015-Jan-31 04:33N 37°48' W 122°24'0 0.0
2015-Jan-31 03:33N 37°48' W 122°24'0 0.0
2015-Jan-31 02:33N 37°48' W 122°24'3 3.0
2015-Jan-31 01:34N 37°49' W 122°20'3 3.0
2015-Jan-31 00:33N 37°48' W 122°24'0 0.0
2015-Jan-30 23:33N 37°48' W 122°24'0 0.0
2015-Jan-30 22:33N 37°48' W 122°24'4 3.7
2015-Jan-30 21:33N 37°48' W 122°19'4 3.7
2015-Jan-30 20:33N 37°48' W 122°24'0 0.0
2015-Jan-30 19:33N 37°48' W 122°24'0 0.0
2015-Jan-30 18:33N 37°48' W 122°24'4 3.8
2015-Jan-30 17:33N 37°50' W 122°28'4 3.7
2015-Jan-30 16:33N 37°48' W 122°24'0 0.0
2015-Jan-30 15:34N 37°48' W 122°24'0 0.0
2015-Jan-30 14:33N 37°48' W 122°24'0 0.0
2015-Jan-30 13:33N 37°48' W 122°24'0 0.0
2015-Jan-30 12:34N 37°48' W 122°24'0 0.0
2015-Jan-30 11:34N 37°48' W 122°24'0 0.0
2015-Jan-30 10:33N 37°48' W 122°24'0 0.0
2015-Jan-30 09:34N 37°48' W 122°24'0 0.0
2015-Jan-30 08:34N 37°48' W 122°24'0 0.0
2015-Jan-30 07:33N 37°48' W 122°24'0 0.0
2015-Jan-30 06:33N 37°48' W 122°24'0 0.0
2015-Jan-30 05:34N 37°48' W 122°24'0 0.0
2015-Jan-30 04:34N 37°48' W 122°24'1 1.4
2015-Jan-30 03:34N 37°48' W 122°22'1 1.4
2015-Jan-30 02:33N 37°48' W 122°24'3 3.2
2015-Jan-30 01:34N 37°46' W 122°21'3 2.9
2015-Jan-30 00:33N 37°48' W 122°24'0 0.2
2015-Jan-29 23:34N 37°48' W 122°24'0 0.0
2015-Jan-29 22:34N 37°48' W 122°24'0 0.0
2015-Jan-29 21:33N 37°48' W 122°24'0 0.0
2015-Jan-29 20:34N 37°48' W 122°24'0 0.0
2015-Jan-29 19:33N 37°48' W 122°24'2 2.0
2015-Jan-29 18:34N 37°47' W 122°22'2 2.0
2015-Jan-29 17:33N 37°48' W 122°24'0 0.0
2015-Jan-29 16:33N 37°48' W 122°24'0 0.0
2015-Jan-29 15:33N 37°48' W 122°24'0 0.0
2015-Jan-29 14:33N 37°48' W 122°24'0 0.0
2015-Jan-29 13:33N 37°48' W 122°24'0 0.0
2015-Jan-29 12:33N 37°48' W 122°24'0 0.0
2015-Jan-29 11:33N 37°48' W 122°24'2 2.2
2015-Jan-29 10:33N 37°47' W 122°22'2 2.2
2015-Jan-29 09:33N 37°48' W 122°24'0 0.0
2015-Jan-29 08:33N 37°48' W 122°24'0 0.0
2015-Jan-29 07:33N 37°48' W 122°24'4 4.2
2015-Jan-29 06:33N 37°45' W 122°20'4 4.2
2015-Jan-29 05:33N 37°48' W 122°24'0 0.0
2015-Jan-29 04:33N 37°48' W 122°24'3 3.3
2015-Jan-29 03:33N 37°45' W 122°22'2 1.6
2015-Jan-29 02:34N 37°44' W 122°20'5 4.8
2015-Jan-29 01:33N 37°48' W 122°24'1 0.9
2015-Jan-29 00:12N 37°49' W 122°25'4 5.6
2015-Jan-28 23:34N 37°48' W 122°21'4 3.8
2015-Jan-28 22:34N 37°49' W 122°25'6 6.1
2015-Jan-28 21:33N 37°48' W 122°33'10 9.8
2015-Jan-28 20:33N 37°46' W 122°21'3 3.4
2015-Jan-28 19:33N 37°48' W 122°24'0 0.0
2015-Jan-28 18:33N 37°48' W 122°24'0 0.0
2015-Jan-28 17:33N 37°48' W 122°24'0 0.0
2015-Jan-28 16:33N 37°48' W 122°24'0 0.0
2015-Jan-28 15:33N 37°48' W 122°24'0 0.0
2015-Jan-28 14:33N 37°48' W 122°24'0 0.0
2015-Jan-28 13:34N 37°48' W 122°24'10 9.8
2015-Jan-28 12:34N 37°46' W 122°36'10 9.7
2015-Jan-28 11:33N 37°48' W 122°24'0 0.0
2015-Jan-28 10:33N 37°48' W 122°24'0 0.0
2015-Jan-28 09:33N 37°48' W 122°24'0 0.0
2015-Jan-28 08:33N 37°48' W 122°24'6 6.1
2015-Jan-28 07:33N 37°48' W 122°31'3 3.3
2015-Jan-28 06:34N 37°49' W 122°28'6 5.8
2015-Jan-28 05:34N 37°47' W 122°21'3 2.6
2015-Jan-28 04:34N 37°48' W 122°24'1 0.7
2015-Jan-28 03:34N 37°49' W 122°24'1 1.5
2015-Jan-28 02:34N 37°50' W 122°24'2 2.2
2015-Jan-28 01:34N 37°48' W 122°24'0 0.0
2015-Jan-28 00:34N 37°48' W 122°24'1 1.0
2015-Jan-27 23:33N 37°48' W 122°23'1 1.0
2015-Jan-27 22:33N 37°48' W 122°24'0 0.0
2015-Jan-27 21:32N 37°48' W 122°24'0 0.0
2015-Jan-27 20:33N 37°48' W 122°24'0 0.3
2015-Jan-27 19:34N 37°48' W 122°23'0 0.3
2015-Jan-27 18:33N 37°48' W 122°24'1 1.2
2015-Jan-27 17:33N 37°49' W 122°25'7 6.9
2015-Jan-27 16:34N 37°43' W 122°19'7 6.6
2015-Jan-27 15:34N 37°49' W 122°24'1 0.8
2015-Jan-27 14:33N 37°48' W 122°24'0 0.0
2015-Jan-27 13:18N 37°48' W 122°24'0 0.0
2015-Jan-27 12:33N 37°48' W 122°24'0 0.0
2015-Jan-27 11:33N 37°48' W 122°24'2 2.5
2015-Jan-27 10:33N 37°48' W 122°21'2 2.5
2015-Jan-27 09:33N 37°48' W 122°24'1 0.5
2015-Jan-27 08:33N 37°49' W 122°24'3 2.9
2015-Jan-27 07:33N 37°50' W 122°27'3 3.3
2015-Jan-27 06:34N 37°48' W 122°24'0 0.0
2015-Jan-27 05:34N 37°48' W 122°24'0 0.0
2015-Jan-27 04:33N 37°48' W 122°24'3 2.5
2015-Jan-27 03:34N 37°46' W 122°21'3 2.5
2015-Jan-27 02:34N 37°48' W 122°24'0 0.1
2015-Jan-27 01:33N 37°48' W 122°24'0 0.1
2015-Jan-27 00:33N 37°48' W 122°24'0 0.0
2015-Jan-26 23:33N 37°48' W 122°24'0 0.0
2015-Jan-26 22:33N 37°48' W 122°24'0 0.0
2015-Jan-26 21:33N 37°48' W 122°24'0 0.0
2015-Jan-26 20:34N 37°48' W 122°24'1 1.2
2015-Jan-26 19:33N 37°49' W 122°25'2 2.0
2015-Jan-26 18:33N 37°48' W 122°23'1 0.6
2015-Jan-26 17:34N 37°49' W 122°23'1 0.7
2015-Jan-26 16:33N 37°48' W 122°24'6 5.8
2015-Jan-26 15:33N 37°43' W 122°20'1212.5
2015-Jan-26 14:33N 37°47' W 122°35'9 9.3
2015-Jan-26 13:33N 37°48' W 122°24'9 8.8
2015-Jan-26 12:34N 37°47' W 122°35'1211.5
2015-Jan-26 11:34N 37°44' W 122°21'5 4.6
2015-Jan-26 10:33N 37°48' W 122°24'0 0.0
2015-Jan-26 09:33N 37°48' W 122°24'0 0.0
2015-Jan-26 08:34N 37°48' W 122°24'0 0.0
2015-Jan-26 07:34N 37°48' W 122°24'0 0.0
2015-Jan-26 06:33N 37°48' W 122°24'0 0.0
2015-Jan-26 05:34N 37°48' W 122°24'0 0.0
2015-Jan-26 04:33N 37°48' W 122°24'0 0.0
2015-Jan-26 03:33N 37°48' W 122°24'0 0.0
2015-Jan-26 02:33N 37°48' W 122°24'0 0.0
2015-Jan-26 01:33N 37°48' W 122°24'0 0.0
2015-Jan-26 00:33N 37°48' W 122°24'0 0.0
2015-Jan-25 23:33N 37°48' W 122°24'0 0.0
2015-Jan-25 22:33N 37°48' W 122°24'0 0.0
2015-Jan-25 21:33N 37°48' W 122°24'0 0.0
2015-Jan-25 20:33N 37°48' W 122°24'0 0.0
2015-Jan-25 19:33N 37°48' W 122°24'0 0.0
2015-Jan-25 18:33N 37°48' W 122°24'0 0.0
2015-Jan-25 17:33N 37°48' W 122°24'0 0.0
2015-Jan-25 16:33N 37°48' W 122°24'0 0.0
2015-Jan-25 15:33N 37°48' W 122°24'0 0.0
2015-Jan-25 14:33N 37°48' W 122°24'0 0.0
2015-Jan-25 13:33N 37°48' W 122°24'5 4.7
2015-Jan-25 12:34N 37°44' W 122°20'5 4.6
2015-Jan-25 11:33N 37°48' W 122°24'5 4.7
2015-Jan-25 10:34N 37°44' W 122°20'5 4.6
2015-Jan-25 09:33N 37°48' W 122°24'0 0.0
2015-Jan-25 08:33N 37°48' W 122°24'0 0.0
2015-Jan-25 07:33N 37°48' W 122°24'3 3.4
2015-Jan-25 06:33N 37°46' W 122°21'7 6.7
2015-Jan-25 05:33N 37°49' W 122°28'4 3.6
2015-Jan-25 04:33N 37°48' W 122°24'0 0.0
2015-Jan-25 03:33N 37°48' W 122°24'0 0.0
2015-Jan-25 02:33N 37°48' W 122°24'0 0.0
2015-Jan-25 01:33N 37°48' W 122°24'0 0.0
2015-Jan-25 00:34N 37°48' W 122°24'1 1.2
2015-Jan-24 23:33N 37°48' W 122°22'9 8.7
2015-Jan-24 22:33N 37°48' W 122°33'9 8.9
2015-Jan-24 21:33N 37°47' W 122°22'2 1.5
2015-Jan-24 20:33N 37°48' W 122°24'0 0.0
2015-Jan-24 19:33N 37°48' W 122°24'0 0.0
2015-Jan-24 18:34N 37°48' W 122°24'1 1.2
2015-Jan-24 17:33N 37°49' W 122°25'1 1.2
2015-Jan-24 16:34N 37°48' W 122°24'3 3.3
2015-Jan-24 15:34N 37°46' W 122°21'3 3.3
2015-Jan-24 14:33N 37°48' W 122°24'0 0.4
2015-Jan-24 13:34N 37°48' W 122°23'4 3.7
2015-Jan-24 12:33N 37°49' W 122°28'3 3.3
2015-Jan-24 11:33N 37°48' W 122°24'0 0.0
2015-Jan-24 10:33N 37°48' W 122°24'0 0.0
2015-Jan-24 09:33N 37°48' W 122°24'0 0.0
2015-Jan-24 08:34N 37°48' W 122°24'3 2.7
2015-Jan-24 07:33N 37°49' W 122°27'3 2.7
2015-Jan-24 06:33N 37°48' W 122°24'0 0.0
2015-Jan-24 05:33N 37°48' W 122°24'3 3.2
2015-Jan-24 04:34N 37°48' W 122°20'3 3.2
2015-Jan-24 03:34N 37°48' W 122°24'0 0.0
2015-Jan-24 02:34N 37°48' W 122°24'0 0.0
2015-Jan-24 01:33N 37°48' W 122°24'3 2.5
2015-Jan-24 00:33N 37°48' W 122°21'3 2.5
2015-Jan-23 23:33N 37°48' W 122°24'0 0.0
2015-Jan-23 22:33N 37°48' W 122°24'0 0.0
2015-Jan-23 21:33N 37°48' W 122°24'0 0.0
2015-Jan-23 20:33N 37°48' W 122°24'0 0.0
2015-Jan-23 19:33N 37°48' W 122°24'7 3.3
2015-Jan-23 17:20N 37°55' W 122°22'7 8.5
2015-Jan-23 16:33N 37°49' W 122°23'1 0.8
2015-Jan-23 15:33N 37°48' W 122°24'3 2.6
2015-Jan-23 14:34N 37°47' W 122°21'3 2.6
2015-Jan-23 13:33N 37°48' W 122°24'5 5.3
2015-Jan-23 12:34N 37°44' W 122°20'5 5.3
2015-Jan-23 11:33N 37°48' W 122°24'2 1.8
2015-Jan-23 10:34N 37°49' W 122°26'1 0.6
2015-Jan-23 09:33N 37°49' W 122°26'2 2.3
2015-Jan-23 08:34N 37°48' W 122°24'0 0.0
2015-Jan-23 07:34N 37°48' W 122°24'4 4.0
2015-Jan-23 06:34N 37°49' W 122°29'2 2.4
2015-Jan-23 05:33N 37°49' W 122°26'2 1.8
2015-Jan-23 04:33N 37°48' W 122°24'0 0.0
2015-Jan-23 03:33N 37°48' W 122°24'0 0.0
2015-Jan-23 02:33N 37°48' W 122°24'0 0.0
2015-Jan-23 01:33N 37°48' W 122°24'2 1.7
2015-Jan-23 00:34N 37°49' W 122°25'3 2.6
2015-Jan-22 23:33N 37°48' W 122°22'  
Track history (hours):
 
Tides and Currents Weather Stations Pressure Air Temp Water Temp Dewpoint Dewpoint Depression Visibility Wind Speed Wind Dir Waves Ship Positions

P/v Golden Gate

Owner: San Francisco Bar Pilots Benevolent and Protective, San Francisco, CA. More information available from US FCC via Universal Licensing System and Coast Guard Vessel Documentation Center.

Last reported at 2015-Feb-01 23:33 UTC. Time now 2015-Feb-02 00:17 UTC.
Position N 37°48' W 122°24'.

Length 23 m; draft 2 m.

Type: Pilot. MMSI: 367370010.

Date/timePositionNaut miles runAvg speedWind from/ knotsBaromVisibWave heightAir tempDewpointWater temp
2015-Feb-01 23:33N 37°48' W 122°24'0 0.0
2015-Feb-01 22:33N 37°48' W 122°24'0 0.0
2015-Feb-01 21:33N 37°48' W 122°24'0 0.0
2015-Feb-01 20:33N 37°48' W 122°24'9 9.2
2015-Feb-01 19:34N 37°47' W 122°35'9 9.2
2015-Feb-01 18:33N 37°48' W 122°24'0 0.0
2015-Feb-01 17:33N 37°48' W 122°24'0 0.0
2015-Feb-01 16:33N 37°48' W 122°24'3 3.1
2015-Feb-01 15:34N 37°49' W 122°20'3 3.1
2015-Feb-01 14:33N 37°48' W 122°24'3 3.4
2015-Feb-01 13:34N 37°46' W 122°20'3 3.3
2015-Feb-01 12:33N 37°48' W 122°24'0 0.0
2015-Feb-01 11:34N 37°48' W 122°24'0 0.0
2015-Feb-01 10:34N 37°48' W 122°24'0 0.0
2015-Feb-01 09:33N 37°48' W 122°24'4 4.1
2015-Feb-01 08:34N 37°49' W 122°29'7 7.3
2015-Feb-01 07:33N 37°49' W 122°20'3 3.5
2015-Feb-01 06:33N 37°48' W 122°24'0 0.0
2015-Feb-01 05:34N 37°48' W 122°24'2 2.4
2015-Feb-01 04:34N 37°48' W 122°21'2 2.4
2015-Feb-01 03:33N 37°48' W 122°24'0 0.0
2015-Feb-01 02:33N 37°48' W 122°24'0 0.0
2015-Feb-01 01:33N 37°48' W 122°24'0 0.0
2015-Feb-01 00:33N 37°48' W 122°24'0 0.0
2015-Jan-31 23:33N 37°48' W 122°24'0 0.0
2015-Jan-31 22:33N 37°48' W 122°24'0 0.0
2015-Jan-31 21:33N 37°48' W 122°24'0 0.0
2015-Jan-31 20:33N 37°48' W 122°24'0 0.0
2015-Jan-31 19:33N 37°48' W 122°24'0 0.0
2015-Jan-31 18:33N 37°48' W 122°24'0 0.0
2015-Jan-31 17:33N 37°48' W 122°24'1 1.2
2015-Jan-31 16:32N 37°49' W 122°25'1 1.3
2015-Jan-31 15:34N 37°48' W 122°24'1 0.9
2015-Jan-31 14:33N 37°48' W 122°23'5 4.6
2015-Jan-31 13:34N 37°52' W 122°25'3 3.3
2015-Jan-31 12:33N 37°49' W 122°24'1 0.6
2015-Jan-31 11:33N 37°48' W 122°24'0 0.0
2015-Jan-31 10:33N 37°48' W 122°24'4 4.1
2015-Jan-31 09:33N 37°49' W 122°19'4 4.1
2015-Jan-31 08:33N 37°48' W 122°24'0 0.0
2015-Jan-31 07:33N 37°48' W 122°24'0 0.0
2015-Jan-31 06:33N 37°48' W 122°24'0 0.0
2015-Jan-31 05:33N 37°48' W 122°24'0 0.0
2015-Jan-31 04:33N 37°48' W 122°24'0 0.0
2015-Jan-31 03:33N 37°48' W 122°24'0 0.0
2015-Jan-31 02:33N 37°48' W 122°24'3 3.0
2015-Jan-31 01:34N 37°49' W 122°20'3 3.0
2015-Jan-31 00:33N 37°48' W 122°24'0 0.0
2015-Jan-30 23:33N 37°48' W 122°24'0 0.0
2015-Jan-30 22:33N 37°48' W 122°24'4 3.7
2015-Jan-30 21:33N 37°48' W 122°19'4 3.7
2015-Jan-30 20:33N 37°48' W 122°24'0 0.0
2015-Jan-30 19:33N 37°48' W 122°24'0 0.0
2015-Jan-30 18:33N 37°48' W 122°24'4 3.8
2015-Jan-30 17:33N 37°50' W 122°28'4 3.7
2015-Jan-30 16:33N 37°48' W 122°24'0 0.0
2015-Jan-30 15:34N 37°48' W 122°24'0 0.0
2015-Jan-30 14:33N 37°48' W 122°24'0 0.0
2015-Jan-30 13:33N 37°48' W 122°24'0 0.0
2015-Jan-30 12:34N 37°48' W 122°24'0 0.0
2015-Jan-30 11:34N 37°48' W 122°24'0 0.0
2015-Jan-30 10:33N 37°48' W 122°24'0 0.0
2015-Jan-30 09:34N 37°48' W 122°24'0 0.0
2015-Jan-30 08:34N 37°48' W 122°24'0 0.0
2015-Jan-30 07:33N 37°48' W 122°24'0 0.0
2015-Jan-30 06:33N 37°48' W 122°24'0 0.0
2015-Jan-30 05:34N 37°48' W 122°24'0 0.0
2015-Jan-30 04:34N 37°48' W 122°24'1 1.4
2015-Jan-30 03:34N 37°48' W 122°22'1 1.4
2015-Jan-30 02:33N 37°48' W 122°24'3 3.2
2015-Jan-30 01:34N 37°46' W 122°21'3 2.9
2015-Jan-30 00:33N 37°48' W 122°24'0 0.2
2015-Jan-29 23:34N 37°48' W 122°24'0 0.0
2015-Jan-29 22:34N 37°48' W 122°24'0 0.0
2015-Jan-29 21:33N 37°48' W 122°24'0 0.0
2015-Jan-29 20:34N 37°48' W 122°24'0 0.0
2015-Jan-29 19:33N 37°48' W 122°24'2 2.0
2015-Jan-29 18:34N 37°47' W 122°22'2 2.0
2015-Jan-29 17:33N 37°48' W 122°24'0 0.0
2015-Jan-29 16:33N 37°48' W 122°24'0 0.0
2015-Jan-29 15:33N 37°48' W 122°24'0 0.0
2015-Jan-29 14:33N 37°48' W 122°24'0 0.0
2015-Jan-29 13:33N 37°48' W 122°24'0 0.0
2015-Jan-29 12:33N 37°48' W 122°24'0 0.0
2015-Jan-29 11:33N 37°48' W 122°24'2 2.2
2015-Jan-29 10:33N 37°47' W 122°22'2 2.2
2015-Jan-29 09:33N 37°48' W 122°24'0 0.0
2015-Jan-29 08:33N 37°48' W 122°24'0 0.0
2015-Jan-29 07:33N 37°48' W 122°24'4 4.2
2015-Jan-29 06:33N 37°45' W 122°20'4 4.2
2015-Jan-29 05:33N 37°48' W 122°24'0 0.0
2015-Jan-29 04:33N 37°48' W 122°24'3 3.3
2015-Jan-29 03:33N 37°45' W 122°22'2 1.6
2015-Jan-29 02:34N 37°44' W 122°20'5 4.8
2015-Jan-29 01:33N 37°48' W 122°24'1 0.9
2015-Jan-29 00:12N 37°49' W 122°25'4 5.6
2015-Jan-28 23:34N 37°48' W 122°21'4 3.8
2015-Jan-28 22:34N 37°49' W 122°25'6 6.1
2015-Jan-28 21:33N 37°48' W 122°33'10 9.8
2015-Jan-28 20:33N 37°46' W 122°21'3 3.4
2015-Jan-28 19:33N 37°48' W 122°24'0 0.0
2015-Jan-28 18:33N 37°48' W 122°24'0 0.0
2015-Jan-28 17:33N 37°48' W 122°24'0 0.0
2015-Jan-28 16:33N 37°48' W 122°24'0 0.0
2015-Jan-28 15:33N 37°48' W 122°24'0 0.0
2015-Jan-28 14:33N 37°48' W 122°24'0 0.0
2015-Jan-28 13:34N 37°48' W 122°24'10 9.8
2015-Jan-28 12:34N 37°46' W 122°36'10 9.7
2015-Jan-28 11:33N 37°48' W 122°24'0 0.0
2015-Jan-28 10:33N 37°48' W 122°24'0 0.0
2015-Jan-28 09:33N 37°48' W 122°24'0 0.0
2015-Jan-28 08:33N 37°48' W 122°24'6 6.1
2015-Jan-28 07:33N 37°48' W 122°31'3 3.3
2015-Jan-28 06:34N 37°49' W 122°28'6 5.8
2015-Jan-28 05:34N 37°47' W 122°21'3 2.6
2015-Jan-28 04:34N 37°48' W 122°24'1 0.7
2015-Jan-28 03:34N 37°49' W 122°24'1 1.5
2015-Jan-28 02:34N 37°50' W 122°24'2 2.2
2015-Jan-28 01:34N 37°48' W 122°24'0 0.0
2015-Jan-28 00:34N 37°48' W 122°24'1 1.0
2015-Jan-27 23:33N 37°48' W 122°23'1 1.0
2015-Jan-27 22:33N 37°48' W 122°24'0 0.0
2015-Jan-27 21:32N 37°48' W 122°24'0 0.0
2015-Jan-27 20:33N 37°48' W 122°24'0 0.3
2015-Jan-27 19:34N 37°48' W 122°23'0 0.3
2015-Jan-27 18:33N 37°48' W 122°24'1 1.2
2015-Jan-27 17:33N 37°49' W 122°25'7 6.9
2015-Jan-27 16:34N 37°43' W 122°19'7 6.6
2015-Jan-27 15:34N 37°49' W 122°24'1 0.8
2015-Jan-27 14:33N 37°48' W 122°24'0 0.0
2015-Jan-27 13:18N 37°48' W 122°24'0 0.0
2015-Jan-27 12:33N 37°48' W 122°24'0 0.0
2015-Jan-27 11:33N 37°48' W 122°24'2 2.5
2015-Jan-27 10:33N 37°48' W 122°21'2 2.5
2015-Jan-27 09:33N 37°48' W 122°24'1 0.5
2015-Jan-27 08:33N 37°49' W 122°24'3 2.9
2015-Jan-27 07:33N 37°50' W 122°27'3 3.3
2015-Jan-27 06:34N 37°48' W 122°24'0 0.0
2015-Jan-27 05:34N 37°48' W 122°24'0 0.0
2015-Jan-27 04:33N 37°48' W 122°24'3 2.5
2015-Jan-27 03:34N 37°46' W 122°21'3 2.5
2015-Jan-27 02:34N 37°48' W 122°24'0 0.1
2015-Jan-27 01:33N 37°48' W 122°24'0 0.1
2015-Jan-27 00:33N 37°48' W 122°24'0 0.0
2015-Jan-26 23:33N 37°48' W 122°24'0 0.0
2015-Jan-26 22:33N 37°48' W 122°24'0 0.0
2015-Jan-26 21:33N 37°48' W 122°24'0 0.0
2015-Jan-26 20:34N 37°48' W 122°24'1 1.2
2015-Jan-26 19:33N 37°49' W 122°25'2 2.0
2015-Jan-26 18:33N 37°48' W 122°23'1 0.6
2015-Jan-26 17:34N 37°49' W 122°23'1 0.7
2015-Jan-26 16:33N 37°48' W 122°24'6 5.8
2015-Jan-26 15:33N 37°43' W 122°20'1212.5
2015-Jan-26 14:33N 37°47' W 122°35'9 9.3
2015-Jan-26 13:33N 37°48' W 122°24'9 8.8
2015-Jan-26 12:34N 37°47' W 122°35'1211.5
2015-Jan-26 11:34N 37°44' W 122°21'5 4.6
2015-Jan-26 10:33N 37°48' W 122°24'0 0.0
2015-Jan-26 09:33N 37°48' W 122°24'0 0.0
2015-Jan-26 08:34N 37°48' W 122°24'0 0.0
2015-Jan-26 07:34N 37°48' W 122°24'0 0.0
2015-Jan-26 06:33N 37°48' W 122°24'0 0.0
2015-Jan-26 05:34N 37°48' W 122°24'0 0.0
2015-Jan-26 04:33N 37°48' W 122°24'0 0.0
2015-Jan-26 03:33N 37°48' W 122°24'0 0.0
2015-Jan-26 02:33N 37°48' W 122°24'0 0.0
2015-Jan-26 01:33N 37°48' W 122°24'0 0.0
2015-Jan-26 00:33N 37°48' W 122°24'0 0.0
2015-Jan-25 23:33N 37°48' W 122°24'0 0.0
2015-Jan-25 22:33N 37°48' W 122°24'0 0.0
2015-Jan-25 21:33N 37°48' W 122°24'0 0.0
2015-Jan-25 20:33N 37°48' W 122°24'0 0.0
2015-Jan-25 19:33N 37°48' W 122°24'0 0.0
2015-Jan-25 18:33N 37°48' W 122°24'0 0.0
2015-Jan-25 17:33N 37°48' W 122°24'0 0.0
2015-Jan-25 16:33N 37°48' W 122°24'0 0.0
2015-Jan-25 15:33N 37°48' W 122°24'0 0.0
2015-Jan-25 14:33N 37°48' W 122°24'0 0.0
2015-Jan-25 13:33N 37°48' W 122°24'5 4.7
2015-Jan-25 12:34N 37°44' W 122°20'5 4.6
2015-Jan-25 11:33N 37°48' W 122°24'5 4.7
2015-Jan-25 10:34N 37°44' W 122°20'5 4.6
2015-Jan-25 09:33N 37°48' W 122°24'0 0.0
2015-Jan-25 08:33N 37°48' W 122°24'0 0.0
2015-Jan-25 07:33N 37°48' W 122°24'3 3.4
2015-Jan-25 06:33N 37°46' W 122°21'7 6.7
2015-Jan-25 05:33N 37°49' W 122°28'4 3.6
2015-Jan-25 04:33N 37°48' W 122°24'0 0.0
2015-Jan-25 03:33N 37°48' W 122°24'0 0.0
2015-Jan-25 02:33N 37°48' W 122°24'0 0.0
2015-Jan-25 01:33N 37°48' W 122°24'0 0.0
2015-Jan-25 00:34N 37°48' W 122°24'1 1.2
2015-Jan-24 23:33N 37°48' W 122°22'9 8.7
2015-Jan-24 22:33N 37°48' W 122°33'9 8.9
2015-Jan-24 21:33N 37°47' W 122°22'2 1.5
2015-Jan-24 20:33N 37°48' W 122°24'0 0.0
2015-Jan-24 19:33N 37°48' W 122°24'0 0.0
2015-Jan-24 18:34N 37°48' W 122°24'1 1.2
2015-Jan-24 17:33N 37°49' W 122°25'1 1.2
2015-Jan-24 16:34N 37°48' W 122°24'3 3.3
2015-Jan-24 15:34N 37°46' W 122°21'3 3.3
2015-Jan-24 14:33N 37°48' W 122°24'0 0.4
2015-Jan-24 13:34N 37°48' W 122°23'4 3.7
2015-Jan-24 12:33N 37°49' W 122°28'3 3.3
2015-Jan-24 11:33N 37°48' W 122°24'0 0.0
2015-Jan-24 10:33N 37°48' W 122°24'0 0.0
2015-Jan-24 09:33N 37°48' W 122°24'0 0.0
2015-Jan-24 08:34N 37°48' W 122°24'3 2.7
2015-Jan-24 07:33N 37°49' W 122°27'3 2.7
2015-Jan-24 06:33N 37°48' W 122°24'0 0.0
2015-Jan-24 05:33N 37°48' W 122°24'3 3.2
2015-Jan-24 04:34N 37°48' W 122°20'3 3.2
2015-Jan-24 03:34N 37°48' W 122°24'0 0.0
2015-Jan-24 02:34N 37°48' W 122°24'0 0.0
2015-Jan-24 01:33N 37°48' W 122°24'3 2.5
2015-Jan-24 00:33N 37°48' W 122°21'3 2.5
2015-Jan-23 23:33N 37°48' W 122°24'0 0.0
2015-Jan-23 22:33N 37°48' W 122°24'0 0.0
2015-Jan-23 21:33N 37°48' W 122°24'0 0.0
2015-Jan-23 20:33N 37°48' W 122°24'0 0.0
2015-Jan-23 19:33N 37°48' W 122°24'7 3.3
2015-Jan-23 17:20N 37°55' W 122°22'7 8.5
2015-Jan-23 16:33N 37°49' W 122°23'1 0.8
2015-Jan-23 15:33N 37°48' W 122°24'3 2.6
2015-Jan-23 14:34N 37°47' W 122°21'3 2.6
2015-Jan-23 13:33N 37°48' W 122°24'5 5.3
2015-Jan-23 12:34N 37°44' W 122°20'5 5.3
2015-Jan-23 11:33N 37°48' W 122°24'2 1.8
2015-Jan-23 10:34N 37°49' W 122°26'1 0.6
2015-Jan-23 09:33N 37°49' W 122°26'2 2.3
2015-Jan-23 08:34N 37°48' W 122°24'0 0.0
2015-Jan-23 07:34N 37°48' W 122°24'4 4.0
2015-Jan-23 06:34N 37°49' W 122°29'2 2.4
2015-Jan-23 05:33N 37°49' W 122°26'2 1.8
2015-Jan-23 04:33N 37°48' W 122°24'0 0.0
2015-Jan-23 03:33N 37°48' W 122°24'0 0.0
2015-Jan-23 02:33N 37°48' W 122°24'0 0.0
2015-Jan-23 01:33N 37°48' W 122°24'2 1.7
2015-Jan-23 00:34N 37°49' W 122°25'3 2.6
2015-Jan-22 23:33N 37°48' W 122°22'  

Dump ship's entire track history